createdAt,value
2017-07-08T00:00:37.777Z,22.40
2017-07-08T00:03:05.348Z,23.67
2017-07-08T00:05:32.909Z,22.80
2017-07-08T00:08:00.626Z,20.83
2017-07-08T00:10:28.214Z,21.60
2017-07-08T00:12:55.786Z,20.77
2017-07-08T00:15:23.372Z,21.17
2017-07-08T00:17:50.983Z,21.87
2017-07-08T00:20:18.543Z,22.30
2017-07-08T00:22:46.898Z,22.97
2017-07-08T00:25:14.512Z,21.77
2017-07-08T00:27:42.100Z,22.33
2017-07-08T00:30:09.695Z,22.00
2017-07-08T00:32:37.280Z,22.70
2017-07-08T00:35:04.861Z,23.10
2017-07-08T00:37:32.446Z,23.53
2017-07-08T00:40:00.059Z,22.37
2017-07-08T00:42:28.406Z,21.87
2017-07-08T00:44:55.992Z,20.70
2017-07-08T00:47:23.560Z,21.17
2017-07-08T00:49:51.191Z,21.77
2017-07-08T00:52:18.763Z,22.30
2017-07-08T00:54:46.345Z,21.77
2017-07-08T00:57:13.969Z,24.00
2017-07-08T00:59:41.545Z,23.50
2017-07-08T01:02:09.151Z,23.57
2017-07-08T01:04:36.718Z,24.70
2017-07-08T01:07:04.322Z,25.40
2017-07-08T01:09:31.891Z,25.40
2017-07-08T01:11:59.479Z,23.60
2017-07-08T01:14:27.078Z,24.63
2017-07-08T01:16:54.662Z,24.93
2017-07-08T01:19:22.219Z,23.50
2017-07-08T01:21:49.832Z,25.17
2017-07-08T01:24:17.439Z,24.40
2017-07-08T01:26:45.031Z,24.47
2017-07-08T01:29:13.363Z,25.40
2017-07-08T01:31:40.956Z,25.70
2017-07-08T01:34:08.538Z,27.07
2017-07-08T01:36:36.099Z,25.23
2017-07-08T01:39:03.668Z,25.00
2017-07-08T01:41:31.251Z,24.87
2017-07-08T01:43:58.835Z,23.37
2017-07-08T01:46:26.423Z,24.83
2017-07-08T01:48:53.998Z,24.30
2017-07-08T01:51:22.330Z,25.27
2017-07-08T01:53:49.926Z,26.43
2017-07-08T01:56:17.482Z,26.50
2017-07-08T01:58:45.066Z,27.40
2017-07-08T02:01:13.443Z,28.00
2017-07-08T02:03:41.835Z,30.20
2017-07-08T02:06:09.403Z,28.67
2017-07-08T02:08:36.987Z,30.17
2017-07-08T02:11:04.569Z,29.27
2017-07-08T02:13:32.160Z,30.33
2017-07-08T02:15:59.747Z,30.73
2017-07-08T02:18:27.339Z,30.30
2017-07-08T02:20:54.904Z,30.30
2017-07-08T02:23:22.458Z,29.10
2017-07-08T02:25:50.034Z,30.80
2017-07-08T02:28:17.623Z,28.53
2017-07-08T02:30:45.202Z,29.17
2017-07-08T02:33:12.810Z,27.77
2017-07-08T02:35:40.377Z,28.47
2017-07-08T02:38:07.959Z,29.97
2017-07-08T02:40:35.565Z,29.60
2017-07-08T02:43:03.137Z,27.77
2017-07-08T02:45:30.726Z,28.10
2017-07-08T02:47:58.305Z,28.07
2017-07-08T02:50:25.870Z,29.20
2017-07-08T02:52:53.450Z,29.30
2017-07-08T02:55:21.787Z,29.53
2017-07-08T02:57:49.455Z,28.37
2017-07-08T03:00:17.031Z,29.50
2017-07-08T03:02:44.625Z,28.77
2017-07-08T03:05:12.211Z,28.57
2017-07-08T03:07:39.790Z,27.47
2017-07-08T03:10:07.362Z,28.60
2017-07-08T03:12:35.014Z,28.53
2017-07-08T03:15:02.574Z,28.00
2017-07-08T03:17:30.140Z,27.90
2017-07-08T03:19:57.728Z,30.10
2017-07-08T03:22:25.325Z,28.20
2017-07-08T03:24:52.901Z,27.60
2017-07-08T03:27:20.545Z,29.40
2017-07-08T03:29:48.113Z,30.27
2017-07-08T03:32:15.674Z,28.90
2017-07-08T03:34:43.279Z,29.40
2017-07-08T03:37:10.842Z,28.10
2017-07-08T03:39:38.405Z,29.20
2017-07-08T03:42:05.991Z,29.27
2017-07-08T03:44:34.327Z,29.60
2017-07-08T03:47:01.897Z,27.87
2017-07-08T03:49:29.486Z,28.53
2017-07-08T03:51:57.049Z,29.80
2017-07-08T03:54:25.409Z,28.93
2017-07-08T03:56:53.002Z,28.80
2017-07-08T03:59:20.574Z,29.20
2017-07-08T04:01:48.187Z,30.80
2017-07-08T04:04:15.758Z,30.80
2017-07-08T04:06:43.343Z,30.03
2017-07-08T04:09:11.626Z,30.50
2017-07-08T04:11:39.312Z,29.40
2017-07-08T04:14:06.874Z,28.77
2017-07-08T04:16:34.456Z,31.53
2017-07-08T04:19:02.044Z,32.00
2017-07-08T04:21:29.670Z,32.13
2017-07-08T04:23:57.266Z,30.50
2017-07-08T04:26:24.856Z,30.13
2017-07-08T04:28:53.187Z,30.57
2017-07-08T04:31:20.779Z,30.47
2017-07-08T04:33:48.328Z,31.57
2017-07-08T04:36:15.895Z,32.37
2017-07-08T04:38:43.508Z,30.60
2017-07-08T04:41:11.076Z,30.00
2017-07-08T04:43:38.704Z,31.87
2017-07-08T04:46:07.026Z,29.97
2017-07-08T04:48:34.597Z,30.77
2017-07-08T04:51:02.183Z,30.60
2017-07-08T04:53:29.748Z,31.00
2017-07-08T04:55:57.337Z,30.67
2017-07-08T04:58:24.923Z,30.67
2017-07-08T05:00:52.576Z,29.60
2017-07-08T05:03:20.153Z,31.57
2017-07-08T05:05:47.731Z,31.90
2017-07-08T05:08:15.293Z,31.63
2017-07-08T05:10:42.875Z,32.60
2017-07-08T05:13:10.437Z,31.70
2017-07-08T05:15:38.030Z,33.40
2017-07-08T05:18:05.593Z,32.90
2017-07-08T05:20:33.170Z,34.93
2017-07-08T05:23:00.885Z,33.27
2017-07-08T05:25:29.216Z,30.83
2017-07-08T05:27:56.837Z,31.50
2017-07-08T05:30:24.418Z,31.30
2017-07-08T05:32:52.008Z,29.10
2017-07-08T05:35:19.602Z,29.40
2017-07-08T05:37:47.212Z,28.20
2017-07-08T05:40:14.790Z,28.43
2017-07-08T05:42:42.390Z,25.93
2017-07-08T05:45:10.735Z,27.33
2017-07-08T05:47:38.430Z,24.80
2017-07-08T05:50:06.006Z,26.20
2017-07-08T05:52:33.585Z,24.83
2017-07-08T05:55:01.195Z,23.73
2017-07-08T05:57:28.770Z,23.07
2017-07-08T05:59:56.357Z,23.47
2017-07-08T06:02:24.753Z,23.70
2017-07-08T06:04:52.307Z,22.33
2017-07-08T06:07:19.872Z,21.40
2017-07-08T06:09:47.476Z,23.63
2017-07-08T06:12:15.067Z,22.03
2017-07-08T06:14:42.671Z,22.77
2017-07-08T06:17:10.263Z,22.30
2017-07-08T06:19:37.830Z,23.07
2017-07-08T06:22:05.398Z,22.97
2017-07-08T06:24:32.987Z,22.50
2017-07-08T06:27:01.335Z,21.50
2017-07-08T06:29:28.918Z,20.33
2017-07-08T06:31:56.530Z,20.73
2017-07-08T06:34:24.102Z,20.30
2017-07-08T06:36:53.308Z,18.97
2017-07-08T06:39:20.929Z,19.87
2017-07-08T06:41:48.515Z,18.50
2017-07-08T06:44:16.088Z,20.37
2017-07-08T06:46:43.759Z,19.93
2017-07-08T06:49:11.349Z,19.97
2017-07-08T06:51:39.696Z,20.57
2017-07-08T06:54:07.286Z,20.73
2017-07-08T06:56:34.893Z,18.43
2017-07-08T06:59:02.452Z,21.00
2017-07-08T07:01:30.097Z,18.97
2017-07-08T07:03:57.631Z,19.80
2017-07-08T07:06:25.208Z,19.10
2017-07-08T07:08:52.764Z,22.53
2017-07-08T07:11:21.137Z,22.07
2017-07-08T07:13:48.732Z,25.37
2017-07-08T07:16:16.315Z,23.70
2017-07-08T07:18:43.908Z,25.27
2017-07-08T07:21:11.462Z,22.73
2017-07-08T07:23:39.035Z,22.90
2017-07-08T07:26:06.647Z,22.90
2017-07-08T07:28:34.229Z,22.13
2017-07-08T07:31:01.804Z,21.80
2017-07-08T07:33:29.382Z,23.13
2017-07-08T07:35:57.734Z,24.77
2017-07-08T07:38:25.325Z,27.07
2017-07-08T07:40:53.662Z,26.77
2017-07-08T07:43:21.255Z,27.40
2017-07-08T07:45:48.879Z,26.20
2017-07-08T07:48:16.443Z,24.00
2017-07-08T07:50:44.008Z,22.10
2017-07-08T07:53:11.580Z,22.70
2017-07-08T07:55:39.160Z,22.60
2017-07-08T07:58:06.775Z,27.30
2017-07-08T08:00:34.372Z,25.13
2017-07-08T08:03:01.934Z,27.10
2017-07-08T08:05:29.535Z,25.27
2017-07-08T08:07:57.293Z,25.77
2017-07-08T08:10:25.662Z,24.93
2017-07-08T08:12:53.996Z,22.47
2017-07-08T08:15:21.626Z,23.40
2017-07-08T08:17:49.227Z,22.77
2017-07-08T08:20:16.798Z,22.80
2017-07-08T08:22:44.380Z,19.67
2017-07-08T08:25:12.727Z,21.53
2017-07-08T08:27:40.351Z,20.27
2017-07-08T08:30:07.955Z,20.60
2017-07-08T08:32:35.586Z,21.27
2017-07-08T08:35:03.169Z,18.10
2017-07-08T08:37:30.744Z,19.03
2017-07-08T08:39:58.324Z,20.07
2017-07-08T08:42:25.891Z,18.70
2017-07-08T08:44:54.250Z,17.00
2017-07-08T08:47:21.838Z,14.97
2017-07-08T08:49:49.418Z,14.87
2017-07-08T08:52:17.026Z,12.90
2017-07-08T08:54:44.613Z,13.20
2017-07-08T08:57:12.957Z,14.30
2017-07-08T08:59:40.564Z,14.83
2017-07-08T09:02:08.902Z,15.20
2017-07-08T09:04:36.501Z,15.10
2017-07-08T09:07:04.098Z,16.20
2017-07-08T09:09:31.670Z,14.70
2017-07-08T09:11:59.275Z,14.87
2017-07-08T09:14:26.866Z,14.30
2017-07-08T09:16:54.447Z,13.50
2017-07-08T09:19:22.052Z,15.00
2017-07-08T09:21:49.633Z,13.70
2017-07-08T09:24:18.023Z,13.53
2017-07-08T09:26:45.588Z,13.70
2017-07-08T09:29:13.191Z,15.40
2017-07-08T09:31:40.786Z,12.87
2017-07-08T09:34:09.153Z,14.57
2017-07-08T09:36:36.776Z,10.80
2017-07-08T09:39:04.343Z,14.70
2017-07-08T09:41:31.941Z,13.57
2017-07-08T09:43:59.518Z,14.47
2017-07-08T09:46:27.078Z,15.27
2017-07-08T09:48:54.693Z,11.40
2017-07-08T09:51:22.548Z,11.03
2017-07-08T09:53:50.123Z,10.87
2017-07-08T09:56:17.727Z,10.40
2017-07-08T09:58:45.325Z,10.57
2017-07-08T10:01:12.892Z,10.33
2017-07-08T10:03:40.479Z,10.23
2017-07-08T10:06:08.066Z,10.50
2017-07-08T10:08:35.644Z,11.10
2017-07-08T10:11:03.211Z,10.20
2017-07-08T10:13:30.806Z,9.73
2017-07-08T10:15:58.373Z,9.03
2017-07-08T10:18:25.964Z,8.00
2017-07-08T10:20:53.535Z,8.10
2017-07-08T10:23:21.921Z,8.43
2017-07-08T10:25:50.269Z,10.03
2017-07-08T10:28:18.059Z,7.97
2017-07-08T10:30:45.606Z,7.10
2017-07-08T10:33:13.176Z,7.17
2017-07-08T10:35:40.783Z,6.20
2017-07-08T10:38:08.432Z,8.10
2017-07-08T10:40:36.018Z,7.77
2017-07-08T10:43:03.602Z,6.83
2017-07-08T10:45:31.186Z,7.20
2017-07-08T10:47:58.787Z,7.63
2017-07-08T10:50:26.384Z,9.10
2017-07-08T10:52:53.964Z,8.50
2017-07-08T10:55:21.530Z,7.70
2017-07-08T10:57:49.174Z,7.07
2017-07-08T11:00:16.814Z,6.13
2017-07-08T11:02:44.613Z,7.60
2017-07-08T11:05:12.169Z,7.50
2017-07-08T11:07:39.715Z,7.40
2017-07-08T11:10:07.347Z,6.87
2017-07-08T11:12:34.911Z,6.73
2017-07-08T11:15:02.533Z,7.90
2017-07-08T11:17:30.894Z,6.33
2017-07-08T11:19:58.464Z,6.03
2017-07-08T11:22:26.048Z,5.33
2017-07-08T11:24:53.614Z,5.93
2017-07-08T11:27:21.230Z,6.50
2017-07-08T11:29:49.660Z,6.70
2017-07-08T11:32:17.235Z,5.93
2017-07-08T11:34:44.808Z,6.27
2017-07-08T11:37:12.435Z,5.77
2017-07-08T11:39:40.006Z,6.10
2017-07-08T11:42:07.615Z,5.80
2017-07-08T11:44:35.202Z,5.73
2017-07-08T11:47:02.773Z,6.10
2017-07-08T11:49:31.219Z,6.50
2017-07-08T11:51:58.819Z,6.60
2017-07-08T11:54:26.422Z,7.53
2017-07-08T11:56:54.024Z,6.73
2017-07-08T11:59:21.635Z,6.77
2017-07-08T12:01:49.266Z,6.93
2017-07-08T12:04:18.582Z,8.60
2017-07-08T12:06:46.201Z,7.63
2017-07-08T12:09:13.788Z,7.10
2017-07-08T12:11:44.430Z,7.80
2017-07-08T12:14:11.990Z,6.80
2017-07-08T12:16:40.323Z,6.70
2017-07-08T12:19:07.927Z,9.37
2017-07-08T12:21:36.259Z,8.40
2017-07-08T12:24:03.846Z,8.43
2017-07-08T12:26:31.450Z,10.30
2017-07-08T12:28:59.025Z,8.80
2017-07-08T12:31:26.645Z,9.63
2017-07-08T12:33:55.113Z,8.80
2017-07-08T12:36:22.766Z,7.50
2017-07-08T12:38:50.355Z,7.57
2017-07-08T12:41:17.933Z,6.73
2017-07-08T12:43:45.559Z,7.20
2017-07-08T12:46:13.186Z,6.97
2017-07-08T12:48:40.746Z,7.57
2017-07-08T12:51:08.358Z,8.10
2017-07-08T12:53:35.928Z,6.83
2017-07-08T12:56:04.266Z,7.43
2017-07-08T12:58:31.923Z,7.53
2017-07-08T13:00:59.431Z,8.70
2017-07-08T13:03:27.086Z,7.50
2017-07-08T13:05:55.479Z,7.13
2017-07-08T13:08:23.051Z,7.07
2017-07-08T13:10:50.642Z,8.13
2017-07-08T13:13:18.222Z,7.27
2017-07-08T13:15:45.814Z,8.17
2017-07-08T13:18:14.181Z,8.27
2017-07-08T13:20:41.826Z,8.57
2017-07-08T13:23:09.396Z,8.40
2017-07-08T13:25:36.983Z,8.37
2017-07-08T13:28:05.317Z,7.90
2017-07-08T13:30:32.916Z,8.30
2017-07-08T13:33:01.683Z,8.20
2017-07-08T13:35:29.485Z,7.63
2017-07-08T13:37:57.133Z,7.90
2017-07-08T13:40:25.286Z,8.07
2017-07-08T13:42:52.862Z,8.90
2017-07-08T13:45:20.445Z,7.77
2017-07-08T13:47:48.064Z,8.93
2017-07-08T13:50:15.635Z,8.90
2017-07-08T13:52:43.219Z,8.87
2017-07-08T13:55:11.576Z,8.50
2017-07-08T13:57:39.152Z,9.17
2017-07-08T14:00:06.836Z,8.70
2017-07-08T14:02:34.403Z,8.23
2017-07-08T14:05:02.026Z,8.70
2017-07-08T14:07:30.405Z,8.90
2017-07-08T14:09:58.475Z,8.50
2017-07-08T14:12:26.985Z,8.47
2017-07-08T14:14:54.566Z,9.10
2017-07-08T14:17:22.163Z,10.20
2017-07-08T14:19:49.745Z,9.80
2017-07-08T14:22:17.398Z,10.37
2017-07-08T14:24:44.986Z,8.90
2017-07-08T14:27:13.332Z,9.73
2017-07-08T14:29:40.931Z,9.77
2017-07-08T14:32:09.278Z,9.97
2017-07-08T14:34:37.341Z,9.47
2017-07-08T14:37:04.915Z,11.60
2017-07-08T14:39:32.503Z,10.10
2017-07-08T14:42:00.847Z,10.43
2017-07-08T14:44:28.510Z,11.90
2017-07-08T14:46:56.083Z,11.63
2017-07-08T14:49:23.702Z,12.77
2017-07-08T14:51:52.210Z,13.47
2017-07-08T14:54:19.820Z,11.77
2017-07-08T14:56:48.162Z,12.13
2017-07-08T14:59:15.772Z,12.10
2017-07-08T15:01:43.371Z,11.13
2017-07-08T15:04:10.963Z,11.53
2017-07-08T15:06:39.098Z,10.90
2017-07-08T15:09:06.705Z,11.00
2017-07-08T15:11:35.143Z,11.10
2017-07-08T15:14:02.798Z,10.97
2017-07-08T15:16:30.591Z,11.27
2017-07-08T15:18:58.268Z,11.17
2017-07-08T15:21:25.860Z,11.23
2017-07-08T15:23:53.445Z,10.97
2017-07-08T15:26:21.033Z,10.70
2017-07-08T15:28:48.612Z,11.47
2017-07-08T15:31:16.296Z,12.07
2017-07-08T15:33:43.960Z,10.50
2017-07-08T15:36:12.305Z,11.60
2017-07-08T15:38:39.866Z,11.57
2017-07-08T15:41:07.474Z,11.90
2017-07-08T15:43:35.055Z,12.10
2017-07-08T15:46:02.653Z,11.00
2017-07-08T15:48:30.498Z,11.23
2017-07-08T15:50:58.075Z,11.00
2017-07-08T15:53:25.659Z,9.90
2017-07-08T15:55:53.237Z,11.37
2017-07-08T15:58:20.815Z,9.77
2017-07-08T16:00:48.423Z,11.63
2017-07-08T16:03:15.990Z,12.10
2017-07-08T16:05:43.576Z,12.00
2017-07-08T16:08:12.529Z,11.10
2017-07-08T16:10:40.113Z,10.97
2017-07-08T16:13:07.828Z,10.90
2017-07-08T16:15:35.445Z,12.43
2017-07-08T16:18:03.005Z,11.57
2017-07-08T16:20:30.596Z,13.10
2017-07-08T16:22:58.203Z,12.70
2017-07-08T16:25:25.810Z,12.70
2017-07-08T16:27:53.580Z,13.63
2017-07-08T16:30:21.164Z,14.20
2017-07-08T16:32:48.814Z,12.97
2017-07-08T16:35:16.448Z,13.67
2017-07-08T16:37:44.810Z,12.80
2017-07-08T16:40:12.439Z,13.90
2017-07-08T16:42:40.025Z,15.20
2017-07-08T16:45:07.607Z,15.33
2017-07-08T16:47:35.942Z,14.37
2017-07-08T16:50:03.545Z,13.60
2017-07-08T16:52:32.025Z,13.87
2017-07-08T16:54:59.637Z,12.20
2017-07-08T16:57:27.196Z,11.23
2017-07-08T16:59:54.863Z,12.03
2017-07-08T17:02:22.458Z,10.47
2017-07-08T17:04:50.035Z,10.07
2017-07-08T17:07:18.405Z,10.37
2017-07-08T17:09:45.986Z,9.37
2017-07-08T17:12:14.339Z,9.47
2017-07-08T17:24:27.013Z,9.13
2017-07-08T17:26:54.610Z,10.07
2017-07-08T17:29:23.000Z,9.60
2017-07-08T17:31:50.790Z,9.87
2017-07-08T17:34:18.394Z,9.90
2017-07-08T17:36:45.992Z,10.13
2017-07-08T17:39:13.595Z,8.63
2017-07-08T17:41:41.197Z,8.83
2017-07-08T17:44:08.771Z,9.07
2017-07-08T17:46:37.136Z,8.83
2017-07-08T17:49:04.740Z,8.83
2017-07-08T17:51:32.355Z,8.57
2017-07-08T17:53:59.923Z,7.97
2017-07-08T17:56:28.292Z,7.90
2017-07-08T17:58:55.974Z,7.30
2017-07-08T18:01:24.370Z,7.10
2017-07-08T18:03:52.020Z,7.57
2017-07-08T18:06:20.356Z,6.87
2017-07-08T18:08:47.946Z,6.73
2017-07-08T18:11:15.522Z,7.00
2017-07-08T18:13:43.882Z,7.40
2017-07-08T18:16:11.499Z,7.20
2017-07-08T18:18:39.075Z,6.93
2017-07-08T18:21:06.671Z,7.93
2017-07-08T18:23:34.534Z,6.53
2017-07-08T18:26:02.117Z,6.90
2017-07-08T18:28:30.439Z,6.80
2017-07-08T18:30:58.027Z,7.20
2017-07-08T18:33:25.691Z,7.20
2017-07-08T18:35:53.255Z,6.67
2017-07-08T18:38:20.851Z,7.73
2017-07-08T18:40:48.446Z,7.30
2017-07-08T18:43:16.046Z,6.87
2017-07-08T18:45:43.627Z,6.43
2017-07-08T18:48:11.978Z,7.33
2017-07-08T18:50:40.380Z,6.60
2017-07-08T18:53:09.102Z,6.80
2017-07-08T18:55:36.683Z,6.53
2017-07-08T18:58:04.258Z,6.90
2017-07-08T19:00:31.827Z,6.90
2017-07-08T19:02:59.429Z,6.90
2017-07-08T19:05:27.002Z,6.43
2017-07-08T19:07:54.595Z,6.80
2017-07-08T19:10:22.179Z,6.67
2017-07-08T19:12:49.774Z,7.63
2017-07-08T19:15:17.343Z,6.97
2017-07-08T19:17:44.934Z,7.60
2017-07-08T19:20:12.530Z,7.10
2017-07-08T19:22:40.882Z,7.80
2017-07-08T19:25:08.528Z,8.10
2017-07-08T19:27:36.100Z,9.00
2017-07-08T19:30:03.693Z,8.63
2017-07-08T19:32:31.670Z,9.30
2017-07-08T19:34:59.255Z,9.77
2017-07-08T19:37:26.844Z,9.47
2017-07-08T19:39:54.438Z,10.50
2017-07-08T19:42:22.023Z,10.57
2017-07-08T19:44:50.393Z,11.53
2017-07-08T19:47:17.995Z,11.57
2017-07-08T19:49:45.751Z,11.67
2017-07-08T19:52:13.385Z,12.20
2017-07-08T19:54:41.037Z,11.47
2017-07-08T19:57:08.610Z,11.30
2017-07-08T19:59:36.218Z,12.13
2017-07-08T20:02:03.832Z,11.37
2017-07-08T20:04:31.433Z,12.10
2017-07-08T20:06:59.025Z,12.50
2017-07-08T20:09:26.615Z,12.50
2017-07-08T20:11:54.203Z,11.53
2017-07-08T20:14:21.820Z,13.40
2017-07-08T20:16:49.471Z,12.03
2017-07-08T20:19:17.061Z,13.27
2017-07-08T20:21:44.682Z,13.03
2017-07-08T20:24:12.260Z,14.30
2017-07-08T20:26:39.872Z,12.90
2017-07-08T20:29:07.484Z,14.00
2017-07-08T20:31:35.055Z,14.53
2017-07-08T20:34:02.658Z,14.23
2017-07-08T20:36:30.265Z,14.33
2017-07-08T20:38:57.897Z,13.80
2017-07-08T20:41:25.519Z,14.37
2017-07-08T20:43:53.116Z,14.83
2017-07-08T20:46:20.685Z,15.00
2017-07-08T20:48:48.308Z,14.73
2017-07-08T20:51:15.893Z,14.57
2017-07-08T20:53:43.797Z,16.00
2017-07-08T20:56:11.429Z,15.97
2017-07-08T20:58:39.223Z,15.10
2017-07-08T21:01:07.003Z,16.20
2017-07-08T21:03:34.596Z,15.37
2017-07-08T21:06:02.171Z,14.43
2017-07-08T21:08:29.796Z,14.90
2017-07-08T21:10:57.374Z,15.47
2017-07-08T21:13:25.739Z,16.70
2017-07-08T21:15:53.389Z,15.50
2017-07-08T21:18:21.242Z,15.93
2017-07-08T21:20:48.859Z,15.10
2017-07-08T21:23:16.790Z,16.40
2017-07-08T21:25:44.509Z,15.83
2017-07-08T21:28:12.160Z,16.30
2017-07-08T21:30:39.713Z,17.10
2017-07-08T21:33:08.048Z,15.57
2017-07-08T21:35:35.885Z,16.00
2017-07-08T21:38:03.480Z,17.13
2017-07-08T21:40:31.117Z,18.60
2017-07-08T21:42:58.758Z,17.90
2017-07-08T21:45:26.352Z,16.60
2017-07-08T21:47:53.938Z,18.03
2017-07-08T21:50:21.518Z,17.00
2017-07-08T21:52:49.425Z,18.07
2017-07-08T21:55:18.204Z,17.30
2017-07-08T21:57:45.816Z,18.00
2017-07-08T22:00:13.410Z,18.27
2017-07-08T22:02:41.001Z,18.93
2017-07-08T22:05:08.626Z,18.50
2017-07-08T22:07:36.211Z,17.60
2017-07-08T22:10:03.817Z,19.07
2017-07-08T22:12:31.433Z,18.40
2017-07-08T22:14:59.044Z,18.00
2017-07-08T22:17:26.660Z,17.93
2017-07-08T22:19:54.258Z,18.93
2017-07-08T22:22:21.853Z,19.23
2017-07-08T22:24:50.234Z,19.53
2017-07-08T22:27:17.820Z,18.07
2017-07-08T22:29:45.426Z,17.30
2017-07-08T22:32:13.199Z,18.10
2017-07-08T22:34:40.899Z,18.70
2017-07-08T22:37:08.487Z,17.47
2017-07-08T22:39:36.104Z,18.63
2017-07-08T22:42:03.893Z,18.80
2017-07-08T22:44:31.462Z,18.00
2017-07-08T22:46:59.220Z,18.07
2017-07-08T22:49:26.811Z,17.03
2017-07-08T22:51:54.408Z,18.27
2017-07-08T22:54:22.032Z,16.90
2017-07-08T22:56:49.613Z,18.77
2017-07-08T22:59:17.213Z,16.80
2017-07-08T23:01:44.820Z,18.47
2017-07-08T23:04:12.402Z,16.27
2017-07-08T23:06:40.000Z,17.90
2017-07-08T23:09:07.924Z,17.87
2017-07-08T23:11:35.514Z,17.80
2017-07-08T23:14:03.948Z,18.00
2017-07-08T23:16:31.553Z,17.60
2017-07-08T23:19:00.152Z,17.37
2017-07-08T23:21:27.701Z,18.33
2017-07-08T23:23:55.294Z,17.93
2017-07-08T23:26:22.891Z,17.47
2017-07-08T23:28:50.535Z,17.17
2017-07-08T23:31:18.150Z,17.53
2017-07-08T23:33:45.919Z,18.07
2017-07-08T23:36:13.538Z,17.23
2017-07-08T23:38:41.153Z,16.80
2017-07-08T23:41:08.844Z,17.80
2017-07-08T23:43:36.463Z,17.60
2017-07-08T23:46:04.034Z,18.00
2017-07-08T23:48:32.397Z,17.10
2017-07-08T23:51:00.011Z,18.53
2017-07-08T23:53:27.611Z,17.80
2017-07-08T23:55:55.236Z,17.30
2017-07-08T23:58:22.804Z,16.80
